createdAt,value
2018-07-11T00:00:47.553Z,11.09
2018-07-11T00:01:53.271Z,11.02
2018-07-11T00:02:59.879Z,10.99
2018-07-11T00:04:04.975Z,11.02
2018-07-11T00:05:09.828Z,11.00
2018-07-11T00:06:16.445Z,11.04
2018-07-11T00:07:21.003Z,11.07
2018-07-11T00:08:25.813Z,11.09
2018-07-11T00:09:30.396Z,11.12
2018-07-11T00:10:35.082Z,11.18
2018-07-11T00:11:40.638Z,11.21
2018-07-11T00:12:47.086Z,11.27
2018-07-11T00:13:52.206Z,11.32
2018-07-11T00:14:57.713Z,11.31
2018-07-11T00:16:02.958Z,11.32
2018-07-11T00:17:11.562Z,11.23
2018-07-11T00:18:17.092Z,11.19
2018-07-11T00:19:22.337Z,11.17
2018-07-11T00:20:26.864Z,11.16
2018-07-11T00:21:32.310Z,11.14
2018-07-11T00:22:37.584Z,11.21
2018-07-11T00:23:42.173Z,11.28
2018-07-11T00:24:46.769Z,11.32
2018-07-11T00:25:51.340Z,11.35
2018-07-11T00:26:56.787Z,11.37
2018-07-11T00:28:03.442Z,11.37
2018-07-11T00:29:09.358Z,11.32
2018-07-11T00:30:15.082Z,11.18
2018-07-11T00:31:21.380Z,11.22
2018-07-11T00:32:26.008Z,11.25
2018-07-11T00:33:31.779Z,11.22
2018-07-11T00:34:36.612Z,11.19
2018-07-11T00:35:41.919Z,11.17
2018-07-11T00:36:47.009Z,11.21
2018-07-11T00:37:51.641Z,11.19
2018-07-11T00:38:56.137Z,11.21
2018-07-11T00:40:00.679Z,11.24
2018-07-11T00:41:06.790Z,11.26
2018-07-11T00:42:12.530Z,11.27
2018-07-11T00:43:17.499Z,11.26
2018-07-11T00:44:22.886Z,11.20
2018-07-11T00:45:27.490Z,11.18
2018-07-11T00:46:32.024Z,11.19
2018-07-11T00:47:37.800Z,11.20
2018-07-11T00:48:42.337Z,11.22
2018-07-11T00:49:47.409Z,11.22
2018-07-11T00:50:53.599Z,11.22
2018-07-11T00:51:58.346Z,11.25
2018-07-11T00:53:03.273Z,11.25
2018-07-11T00:54:09.911Z,11.25
2018-07-11T00:55:15.228Z,11.27
2018-07-11T00:56:22.809Z,11.29
2018-07-11T00:57:32.564Z,11.30
2018-07-11T00:58:39.612Z,11.32
2018-07-11T00:59:46.163Z,11.33
2018-07-11T01:00:56.169Z,11.34
2018-07-11T01:02:06.013Z,11.32
2018-07-11T01:03:11.614Z,11.31
2018-07-11T01:04:17.415Z,11.31
2018-07-11T01:05:24.794Z,11.31
2018-07-11T01:06:32.949Z,11.32
2018-07-11T01:07:41.930Z,11.33
2018-07-11T01:08:47.122Z,11.34
2018-07-11T01:09:52.603Z,11.38
2018-07-11T01:10:57.823Z,11.38
2018-07-11T01:12:13.965Z,11.36
2018-07-11T01:13:19.037Z,11.39
2018-07-11T01:14:23.705Z,11.41
2018-07-11T01:15:28.376Z,11.43
2018-07-11T01:16:34.316Z,11.44
2018-07-11T01:17:45.624Z,11.45
2018-07-11T01:19:09.241Z,11.46
2018-07-11T01:20:14.217Z,11.48
2018-07-11T01:21:18.906Z,11.51
2018-07-11T01:22:23.545Z,11.51
2018-07-11T01:23:28.228Z,11.52
2018-07-11T01:24:33.601Z,11.50
2018-07-11T01:25:38.156Z,11.49
2018-07-11T01:26:42.759Z,11.51
2018-07-11T01:27:48.272Z,11.52
2018-07-11T01:28:52.779Z,11.53
2018-07-11T01:29:57.520Z,11.56
2018-07-11T01:31:03.340Z,11.60
2018-07-11T01:32:07.887Z,11.58
2018-07-11T01:33:13.118Z,11.49
2018-07-11T01:34:17.617Z,11.50
2018-07-11T01:35:22.169Z,11.51
2018-07-11T01:36:27.836Z,11.48
2018-07-11T01:37:32.645Z,11.45
2018-07-11T01:38:37.166Z,11.43
2018-07-11T01:39:43.570Z,11.43
2018-07-11T01:40:49.206Z,11.41
2018-07-11T01:41:53.910Z,11.41
2018-07-11T01:42:58.591Z,11.44
2018-07-11T01:44:03.521Z,11.46
2018-07-11T01:45:08.150Z,11.46
2018-07-11T01:46:13.789Z,11.44
2018-07-11T01:47:18.442Z,11.46
2018-07-11T01:48:23.104Z,11.47
2018-07-11T01:49:27.756Z,11.49
2018-07-11T01:50:33.320Z,11.50
2018-07-11T01:51:46.645Z,11.50
2018-07-11T01:52:59.189Z,11.55
2018-07-11T01:54:03.836Z,11.60
2018-07-11T01:55:08.500Z,11.62
2018-07-11T01:56:13.521Z,11.63
2018-07-11T01:57:18.535Z,11.65
2018-07-11T01:58:23.182Z,11.68
2018-07-11T01:59:31.664Z,11.69
2018-07-11T02:00:37.010Z,11.68
2018-07-11T02:01:43.643Z,11.67
2018-07-11T02:02:49.372Z,11.70
2018-07-11T02:03:54.170Z,11.71
2018-07-11T02:04:59.480Z,11.72
2018-07-11T02:06:04.068Z,11.74
2018-07-11T02:07:09.031Z,11.76
2018-07-11T02:08:13.616Z,11.70
2018-07-11T02:09:18.996Z,11.72
2018-07-11T02:10:23.837Z,11.70
2018-07-11T02:11:28.392Z,11.69
2018-07-11T02:12:33.726Z,11.69
2018-07-11T02:13:38.740Z,11.69
2018-07-11T02:14:46.860Z,11.68
2018-07-11T02:15:53.721Z,11.69
2018-07-11T02:17:03.128Z,11.63
2018-07-11T02:18:08.622Z,11.64
2018-07-11T02:19:14.753Z,11.63
2018-07-11T02:20:21.099Z,11.60
2018-07-11T02:21:27.737Z,11.52
2018-07-11T02:22:36.415Z,11.53
2018-07-11T02:23:47.790Z,11.57
2018-07-11T02:24:57.461Z,11.52
2018-07-11T02:26:05.074Z,11.55
2018-07-11T02:27:10.535Z,11.52
2018-07-11T02:28:17.998Z,11.54
2018-07-11T02:29:22.819Z,11.55
2018-07-11T02:30:27.919Z,11.53
2018-07-11T02:31:32.706Z,11.56
2018-07-11T02:32:37.396Z,11.58
2018-07-11T02:33:42.037Z,11.53
2018-07-11T02:34:46.825Z,11.56
2018-07-11T02:35:51.998Z,11.51
2018-07-11T02:36:56.949Z,11.51
2018-07-11T02:38:01.598Z,11.47
2018-07-11T02:39:06.770Z,11.50
2018-07-11T02:40:11.421Z,11.49
2018-07-11T02:41:16.124Z,11.50
2018-07-11T02:42:20.796Z,11.53
2018-07-11T02:43:25.751Z,11.55
2018-07-11T02:44:30.371Z,11.56
2018-07-11T02:45:35.034Z,11.57
2018-07-11T02:46:44.555Z,11.58
2018-07-11T02:47:49.216Z,11.55
2018-07-11T02:48:54.854Z,11.52
2018-07-11T02:49:59.808Z,11.53
2018-07-11T02:51:04.412Z,11.46
2018-07-11T02:52:09.096Z,11.48
2018-07-11T02:53:17.927Z,11.46
2018-07-11T02:54:22.585Z,11.47
2018-07-11T02:55:27.242Z,11.48
2018-07-11T02:56:32.169Z,11.45
2018-07-11T02:57:36.825Z,11.44
2018-07-11T02:58:41.475Z,11.48
2018-07-11T02:59:46.120Z,11.52
2018-07-11T03:00:51.283Z,11.53
2018-07-11T03:01:55.954Z,11.56
2018-07-11T03:03:01.045Z,11.54
2018-07-11T03:04:05.717Z,11.52
2018-07-11T03:05:10.876Z,11.55
2018-07-11T03:06:16.139Z,11.56
2018-07-11T03:07:20.829Z,11.57
2018-07-11T03:08:29.657Z,11.58
2018-07-11T03:09:34.284Z,11.58
2018-07-11T03:10:39.100Z,11.60
2018-07-11T03:11:43.784Z,11.59
2018-07-11T03:12:48.643Z,11.59
2018-07-11T03:13:53.696Z,11.59
2018-07-11T03:14:58.619Z,11.59
2018-07-11T03:16:03.492Z,11.57
2018-07-11T03:17:08.140Z,11.50
2018-07-11T03:18:12.912Z,11.50
2018-07-11T03:19:17.591Z,11.49
2018-07-11T03:20:22.231Z,11.51
2018-07-11T03:21:27.185Z,11.49
2018-07-11T03:22:32.549Z,11.51
2018-07-11T03:23:37.234Z,11.55
2018-07-11T03:24:42.312Z,11.59
2018-07-11T03:25:46.955Z,11.61
2018-07-11T03:26:51.660Z,11.62
2018-07-11T03:27:56.568Z,11.65
2018-07-11T03:29:01.255Z,11.64
2018-07-11T03:30:06.760Z,11.62
2018-07-11T03:31:11.442Z,11.64
2018-07-11T03:32:16.179Z,11.67
2018-07-11T03:33:20.878Z,11.69
2018-07-11T03:34:25.821Z,11.72
2018-07-11T03:35:30.487Z,11.70
2018-07-11T03:36:35.128Z,11.73
2018-07-11T03:37:39.744Z,11.74
2018-07-11T03:38:44.436Z,11.74
2018-07-11T03:39:49.091Z,11.73
2018-07-11T03:40:54.664Z,11.75
2018-07-11T03:41:59.278Z,11.78
2018-07-11T03:43:04.026Z,11.77
2018-07-11T03:44:08.712Z,11.76
2018-07-11T03:45:13.377Z,11.73
2018-07-11T03:46:18.031Z,11.72
2018-07-11T03:47:22.989Z,11.73
2018-07-11T03:48:28.981Z,11.75
2018-07-11T03:49:33.599Z,11.77
2018-07-11T03:50:38.251Z,11.78
2018-07-11T03:51:42.876Z,11.78
2018-07-11T03:52:47.520Z,11.79
2018-07-11T03:53:52.480Z,11.81
2018-07-11T03:54:57.220Z,11.84
2018-07-11T03:56:01.909Z,11.85
2018-07-11T03:57:06.580Z,11.86
2018-07-11T03:58:11.228Z,11.84
2018-07-11T03:59:15.868Z,11.87
2018-07-11T04:00:20.999Z,11.88
2018-07-11T04:01:25.684Z,11.88
2018-07-11T04:02:30.193Z,11.89
2018-07-11T04:03:34.748Z,11.90
2018-07-11T04:04:39.244Z,11.90
2018-07-11T04:05:43.777Z,11.87
2018-07-11T04:06:49.263Z,11.89
2018-07-11T04:07:53.789Z,11.92
2018-07-11T04:08:58.302Z,11.95
2018-07-11T04:10:02.866Z,11.99
2018-07-11T04:11:07.598Z,12.02
2018-07-11T04:12:12.142Z,12.02
2018-07-11T04:13:17.572Z,12.06
2018-07-11T04:14:22.134Z,12.07
2018-07-11T04:15:26.699Z,12.06
2018-07-11T04:16:31.265Z,12.09
2018-07-11T04:17:35.766Z,12.07
2018-07-11T04:18:40.294Z,12.08
2018-07-11T04:19:45.218Z,12.11
2018-07-11T04:20:49.776Z,12.10
2018-07-11T04:21:54.257Z,12.12
2018-07-11T04:22:59.577Z,12.12
2018-07-11T04:24:04.163Z,12.13
2018-07-11T04:25:08.844Z,12.17
2018-07-11T04:26:13.883Z,12.17
2018-07-11T04:27:18.643Z,12.20
2018-07-11T04:28:25.612Z,12.20
2018-07-11T04:29:30.265Z,12.16
2018-07-11T04:30:34.907Z,12.14
2018-07-11T04:31:39.600Z,12.20
2018-07-11T04:32:44.211Z,12.22
2018-07-11T04:33:49.849Z,12.24
2018-07-11T04:34:54.503Z,12.26
2018-07-11T04:36:02.043Z,12.26
2018-07-11T04:37:06.718Z,12.29
2018-07-11T04:38:11.428Z,12.27
2018-07-11T04:39:17.589Z,12.28
2018-07-11T04:40:22.249Z,12.29
2018-07-11T04:41:26.977Z,12.29
2018-07-11T04:42:33.364Z,12.35
2018-07-11T04:43:37.874Z,12.34
2018-07-11T04:44:42.852Z,12.37
2018-07-11T04:45:48.956Z,12.40
2018-07-11T04:46:53.536Z,12.37
2018-07-11T04:47:58.113Z,12.43
2018-07-11T04:49:02.668Z,12.50
2018-07-11T04:50:10.198Z,12.56
2018-07-11T04:51:15.090Z,12.36
2018-07-11T04:52:20.984Z,12.34
2018-07-11T04:53:26.540Z,12.26
2018-07-11T04:54:31.205Z,12.21
2018-07-11T04:55:36.056Z,12.24
2018-07-11T04:56:40.734Z,12.20
2018-07-11T04:57:45.923Z,12.18
2018-07-11T04:58:50.606Z,12.24
2018-07-11T04:59:55.311Z,12.36
2018-07-11T05:01:00.213Z,12.37
2018-07-11T05:02:05.776Z,12.40
2018-07-11T05:03:17.353Z,12.43
2018-07-11T05:04:22.102Z,12.49
2018-07-11T05:05:26.913Z,12.52
2018-07-11T05:06:31.624Z,12.55
2018-07-11T05:07:36.273Z,12.57
2018-07-11T05:08:42.801Z,12.64
2018-07-11T05:09:47.846Z,12.64
2018-07-11T05:10:53.158Z,12.62
2018-07-11T05:11:58.052Z,12.65
2018-07-11T05:13:03.492Z,12.69
2018-07-11T05:14:08.248Z,12.70
2018-07-11T05:15:13.005Z,12.70
2018-07-11T05:16:19.215Z,12.71
2018-07-11T05:17:24.899Z,12.72
2018-07-11T05:18:29.685Z,12.75
2018-07-11T05:19:34.322Z,12.76
2018-07-11T05:20:39.070Z,12.75
2018-07-11T05:21:43.847Z,12.75
2018-07-11T05:22:48.795Z,12.72
2018-07-11T05:23:53.473Z,12.79
2018-07-11T05:24:58.555Z,12.79
2018-07-11T05:26:03.494Z,12.82
2018-07-11T05:27:09.230Z,12.80
2018-07-11T05:28:13.949Z,12.81
2018-07-11T05:29:20.861Z,12.82
2018-07-11T05:30:27.129Z,12.86
2018-07-11T05:31:31.773Z,12.91
2018-07-11T05:32:36.487Z,12.95
2018-07-11T05:33:41.229Z,13.02
2018-07-11T05:34:46.025Z,13.07
2018-07-11T05:35:51.773Z,13.09
2018-07-11T05:36:56.461Z,13.08
2018-07-11T05:38:01.153Z,13.08
2018-07-11T05:39:06.036Z,13.14
2018-07-11T05:40:10.743Z,13.20
2018-07-11T05:41:15.744Z,13.24
2018-07-11T05:42:20.973Z,13.26
2018-07-11T05:43:25.645Z,13.26
2018-07-11T05:44:30.356Z,13.28
2018-07-11T05:45:35.076Z,13.32
2018-07-11T05:46:40.761Z,13.27
2018-07-11T05:47:46.440Z,13.26
2018-07-11T05:48:51.964Z,13.25
2018-07-11T05:49:56.664Z,13.24
2018-07-11T05:51:01.325Z,13.20
2018-07-11T05:52:06.039Z,13.11
2018-07-11T05:53:10.735Z,13.01
2018-07-11T05:54:15.437Z,12.99
2018-07-11T05:55:20.551Z,13.02
2018-07-11T05:56:26.095Z,12.98
2018-07-11T05:57:30.838Z,12.91
2018-07-11T05:58:35.452Z,12.87
2018-07-11T05:59:40.640Z,12.93
2018-07-11T06:00:45.169Z,12.94
2018-07-11T06:01:51.099Z,12.96
2018-07-11T06:02:55.718Z,12.98
2018-07-11T06:04:03.455Z,13.06
2018-07-11T06:05:09.308Z,13.05
2018-07-11T06:06:14.595Z,13.07
2018-07-11T06:07:19.851Z,13.13
2018-07-11T06:08:25.626Z,13.15
2018-07-11T06:09:30.593Z,13.05
2018-07-11T06:10:37.060Z,13.08
2018-07-11T06:11:43.028Z,13.14
2018-07-11T06:12:47.678Z,13.17
2018-07-11T06:13:54.500Z,13.21
2018-07-11T06:14:59.257Z,13.29
2018-07-11T06:16:04.542Z,13.28
2018-07-11T06:17:11.283Z,13.32
2018-07-11T06:18:16.369Z,13.34
2018-07-11T06:19:21.415Z,13.38
2018-07-11T06:20:26.129Z,13.47
2018-07-11T06:21:31.749Z,13.55
2018-07-11T06:22:37.175Z,13.62
2018-07-11T06:23:41.853Z,13.72
2018-07-11T06:25:58.060Z,13.76
2018-07-11T06:27:02.621Z,13.97
2018-07-11T06:28:07.149Z,14.03
2018-07-11T06:29:11.836Z,14.06
2018-07-11T06:30:16.743Z,14.06
2018-07-11T06:31:23.087Z,14.05
2018-07-11T06:32:27.783Z,14.10
2018-07-11T06:33:32.848Z,14.13
2018-07-11T06:34:37.667Z,14.14
2018-07-11T06:35:42.353Z,14.08
2018-07-11T06:36:47.411Z,14.02
2018-07-11T06:37:52.137Z,13.92
2018-07-11T06:38:56.788Z,13.93
2018-07-11T06:40:01.460Z,13.95
2018-07-11T06:41:06.024Z,14.04
2018-07-11T06:42:12.743Z,14.09
2018-07-11T06:43:17.590Z,13.98
2018-07-11T06:44:22.940Z,13.91
2018-07-11T06:45:27.644Z,14.03
2018-07-11T06:46:34.120Z,14.02
2018-07-11T06:47:39.330Z,14.03
2018-07-11T06:48:44.575Z,14.10
2018-07-11T06:49:49.544Z,14.20
2018-07-11T06:50:54.525Z,14.18
2018-07-11T06:51:59.868Z,14.21
2018-07-11T06:53:04.526Z,14.21
2018-07-11T06:54:09.120Z,14.46
2018-07-11T06:55:14.719Z,14.63
2018-07-11T06:56:19.824Z,14.90
2018-07-11T06:57:24.514Z,15.02
2018-07-11T06:58:29.470Z,15.48
2018-07-11T06:59:34.072Z,15.75
2018-07-11T07:00:38.638Z,15.95
2018-07-11T07:01:43.235Z,16.00
2018-07-11T07:02:49.013Z,15.76
2018-07-11T07:03:54.267Z,15.73
2018-07-11T07:04:58.816Z,15.69
2018-07-11T07:06:03.440Z,15.59
2018-07-11T07:07:08.069Z,15.38
2018-07-11T07:08:14.076Z,15.23
2018-07-11T07:09:19.178Z,15.20
2018-07-11T07:10:23.889Z,15.11
2018-07-11T07:11:28.528Z,15.21
2018-07-11T07:12:33.141Z,15.37
2018-07-11T07:13:38.024Z,15.46
2018-07-11T07:14:43.569Z,15.60
2018-07-11T07:15:49.920Z,15.70
2018-07-11T07:16:54.985Z,15.49
2018-07-11T07:18:00.260Z,15.72
2018-07-11T07:19:06.275Z,15.88
2018-07-11T07:20:11.679Z,15.99
2018-07-11T07:21:16.281Z,16.24
2018-07-11T07:22:21.156Z,16.18
2018-07-11T07:23:25.861Z,16.15
2018-07-11T07:24:30.479Z,16.15
2018-07-11T07:25:35.147Z,16.16
2018-07-11T07:26:40.655Z,16.01
2018-07-11T07:27:45.252Z,15.93
2018-07-11T07:28:50.134Z,15.95
2018-07-11T07:29:55.927Z,15.98
2018-07-11T07:31:00.532Z,16.00
2018-07-11T07:32:05.082Z,16.00
2018-07-11T07:33:09.642Z,15.85
2018-07-11T07:34:16.630Z,16.09
2018-07-11T07:35:21.585Z,16.34
2018-07-11T07:36:27.341Z,16.40
2018-07-11T07:37:31.879Z,16.22
2018-07-11T07:38:40.002Z,16.33
2018-07-11T07:39:44.601Z,16.22
2018-07-11T07:40:51.192Z,16.16
2018-07-11T07:41:56.660Z,16.14
2018-07-11T07:43:02.097Z,16.20
2018-07-11T07:44:09.411Z,16.18
2018-07-11T07:45:13.978Z,16.14
2018-07-11T07:46:18.880Z,16.22
2018-07-11T07:47:28.520Z,16.45
2018-07-11T07:48:33.095Z,16.75
2018-07-11T07:49:37.681Z,16.92
2018-07-11T07:50:42.232Z,17.06
2018-07-11T07:51:46.828Z,17.18
2018-07-11T07:52:52.061Z,17.36
2018-07-11T07:53:57.109Z,17.21
2018-07-11T07:55:02.328Z,17.17
2018-07-11T07:56:07.743Z,17.36
2018-07-11T07:57:12.426Z,17.24
2018-07-11T07:58:18.019Z,17.37
2018-07-11T07:59:22.911Z,17.64
2018-07-11T08:00:27.788Z,17.77
2018-07-11T08:01:33.038Z,17.82
2018-07-11T08:02:38.626Z,17.80
2018-07-11T08:03:43.217Z,17.68
2018-07-11T08:04:48.329Z,17.82
2018-07-11T08:05:55.675Z,17.85
2018-07-11T08:07:01.386Z,17.78
2018-07-11T08:08:06.697Z,17.89
2018-07-11T08:09:11.219Z,17.90
2018-07-11T08:10:27.235Z,17.97
2018-07-11T08:11:31.848Z,17.75
2018-07-11T08:12:37.237Z,17.94
2018-07-11T08:13:42.253Z,18.10
2018-07-11T08:14:46.928Z,18.08
2018-07-11T08:15:51.497Z,17.94
2018-07-11T08:16:56.061Z,17.68
2018-07-11T08:18:00.603Z,18.04
2018-07-11T08:19:11.246Z,18.30
2018-07-11T08:20:16.546Z,18.26
2018-07-11T08:21:21.259Z,17.38
2018-07-11T08:22:31.080Z,17.00
2018-07-11T08:23:41.954Z,17.13
2018-07-11T08:24:53.511Z,16.86
2018-07-11T08:26:06.129Z,17.33
2018-07-11T08:27:15.990Z,17.83
2018-07-11T08:28:56.020Z,17.98
2018-07-11T08:30:10.815Z,18.32
2018-07-11T08:33:21.579Z,18.54
2018-07-11T08:34:31.288Z,18.89
2018-07-11T08:35:47.641Z,18.80
2018-07-11T08:38:59.906Z,18.88
2018-07-11T08:40:10.303Z,18.63
2018-07-11T08:41:23.518Z,18.39
2018-07-11T08:42:32.834Z,18.46
2018-07-11T08:43:42.454Z,18.10
2018-07-11T08:44:51.749Z,18.46
2018-07-11T08:46:00.117Z,18.59
2018-07-11T08:56:56.517Z,18.55
2018-07-11T08:58:06.328Z,19.41
2018-07-11T08:59:16.242Z,19.58
2018-07-11T09:02:29.195Z,19.65
2018-07-11T09:04:37.001Z,19.59
2018-07-11T09:06:49.732Z,19.42
2018-07-11T09:10:02.234Z,19.72
2018-07-11T09:13:14.753Z,19.75
2018-07-11T09:14:28.122Z,19.73
2018-07-11T09:15:38.276Z,19.68
2018-07-11T09:18:53.866Z,19.56
2018-07-11T09:20:08.916Z,19.95
2018-07-11T09:21:22.512Z,20.10
2018-07-11T09:22:33.401Z,20.04
2018-07-11T09:23:43.241Z,20.10
2018-07-11T09:24:49.984Z,20.26
2018-07-11T09:25:55.301Z,20.62
2018-07-11T09:26:59.807Z,20.23
2018-07-11T09:28:05.013Z,19.80
2018-07-11T09:29:09.646Z,20.21
2018-07-11T09:30:14.305Z,20.40
2018-07-11T09:31:18.865Z,20.39
2018-07-11T09:32:23.712Z,20.64
2018-07-11T09:33:28.278Z,20.58
2018-07-11T09:34:33.219Z,20.33
2018-07-11T09:35:38.112Z,20.37
2018-07-11T09:36:42.660Z,20.50
2018-07-11T09:37:47.203Z,20.54
2018-07-11T09:38:52.665Z,20.55
2018-07-11T09:39:59.248Z,20.35
2018-07-11T09:41:04.048Z,19.85
2018-07-11T09:42:08.688Z,19.78
2018-07-11T09:43:13.526Z,19.69
2018-07-11T09:44:18.076Z,19.83
2018-07-11T09:45:23.306Z,19.87
2018-07-11T09:46:28.656Z,19.84
2018-07-11T09:47:33.555Z,19.82
2018-07-11T09:48:38.046Z,20.00
2018-07-11T09:49:42.589Z,20.22
2018-07-11T09:50:47.799Z,20.36
2018-07-11T09:51:53.143Z,19.73
2018-07-11T09:52:58.094Z,19.62
2018-07-11T09:54:03.145Z,19.81
2018-07-11T09:55:07.776Z,19.81
2018-07-11T09:56:13.689Z,19.82
2018-07-11T09:57:18.599Z,20.00
2018-07-11T09:58:24.703Z,19.75
2018-07-11T09:59:29.277Z,19.42
2018-07-11T10:00:41.018Z,19.20
2018-07-11T10:01:45.536Z,19.55
2018-07-11T10:02:50.973Z,19.97
2018-07-11T10:03:56.687Z,20.00
2018-07-11T10:05:01.233Z,19.77
2018-07-11T10:06:05.791Z,19.84
2018-07-11T10:07:10.707Z,19.92
2018-07-11T10:08:15.967Z,19.96
2018-07-11T10:09:20.516Z,19.80
2018-07-11T10:10:25.778Z,19.84
2018-07-11T10:11:30.313Z,19.86
2018-07-11T10:12:36.142Z,19.83
2018-07-11T10:13:41.912Z,19.60
2018-07-11T10:14:46.470Z,19.51
2018-07-11T10:15:51.179Z,19.60
2018-07-11T10:16:56.256Z,19.46
2018-07-11T10:18:02.448Z,19.40
2018-07-11T10:19:07.996Z,19.28
2018-07-11T10:20:14.397Z,19.15
2018-07-11T10:21:20.303Z,19.15
2018-07-11T10:22:26.026Z,19.14
2018-07-11T10:23:31.708Z,19.24
2018-07-11T10:24:37.764Z,19.10
2018-07-11T10:25:43.041Z,19.02
2018-07-11T10:26:49.680Z,18.86
2018-07-11T10:28:00.157Z,18.80
2018-07-11T10:29:05.274Z,18.69
2018-07-11T10:30:09.941Z,18.88
2018-07-11T10:31:14.511Z,18.84
2018-07-11T10:32:19.327Z,18.73
2018-07-11T10:33:27.291Z,18.69
2018-07-11T10:34:34.978Z,18.66
2018-07-11T10:35:39.610Z,18.74
2018-07-11T10:36:45.723Z,18.71
2018-07-11T10:37:51.695Z,18.68
2018-07-11T10:39:00.596Z,18.58
2018-07-11T10:40:06.225Z,18.57
2018-07-11T10:41:12.797Z,18.51
2018-07-11T10:42:17.288Z,18.43
2018-07-11T10:43:21.835Z,18.52
2018-07-11T10:44:28.656Z,18.28
2018-07-11T10:45:34.919Z,18.25
2018-07-11T10:46:40.377Z,18.37
2018-07-11T10:47:44.844Z,18.38
2018-07-11T10:48:51.012Z,18.36
2018-07-11T10:49:56.148Z,18.30
2018-07-11T10:51:01.384Z,18.23
2018-07-11T10:52:08.734Z,18.34
2018-07-11T10:53:15.784Z,18.39
2018-07-11T10:54:20.351Z,17.98
2018-07-11T10:55:25.700Z,17.99
2018-07-11T10:56:35.046Z,17.72
2018-07-11T10:57:42.120Z,17.78
2018-07-11T10:58:49.189Z,18.12
2018-07-11T10:59:56.344Z,18.32
2018-07-11T11:01:05.701Z,18.47
2018-07-11T11:02:07.920Z,18.57
2018-07-11T11:03:13.843Z,18.68
2018-07-11T11:04:24.774Z,18.84
2018-07-11T11:05:29.603Z,18.99
2018-07-11T11:06:36.291Z,19.10
2018-07-11T11:07:43.143Z,18.87
2018-07-11T11:08:48.418Z,18.83
2018-07-11T11:09:55.931Z,18.85
2018-07-11T11:11:01.047Z,18.90
2018-07-11T11:12:08.603Z,18.74
2018-07-11T11:13:13.826Z,18.86
2018-07-11T11:14:19.291Z,18.90
2018-07-11T11:15:24.740Z,18.95
2018-07-11T11:16:31.068Z,18.92
2018-07-11T11:17:36.985Z,18.93
2018-07-11T11:18:41.893Z,18.97
2018-07-11T11:19:46.678Z,18.88
2018-07-11T11:20:52.291Z,18.44
2018-07-11T11:21:58.420Z,18.34
2018-07-11T11:23:07.369Z,18.09
2018-07-11T11:24:13.359Z,18.16
2018-07-11T11:25:21.120Z,18.17
2018-07-11T11:26:26.368Z,18.05
2018-07-11T11:27:31.998Z,18.17
2018-07-11T11:28:38.396Z,18.29
2018-07-11T11:29:46.034Z,18.34
2018-07-11T11:30:52.368Z,18.48
2018-07-11T11:32:00.545Z,18.41
2018-07-11T11:33:06.949Z,18.44
2018-07-11T11:34:11.578Z,18.51
2018-07-11T11:35:18.187Z,18.49
2018-07-11T11:36:24.281Z,18.46
2018-07-11T11:37:36.030Z,18.48
2018-07-11T11:38:49.191Z,18.55
2018-07-11T11:39:57.002Z,18.53
2018-07-11T11:41:05.987Z,18.15
2018-07-11T11:42:12.961Z,18.07
2018-07-11T11:43:17.532Z,17.99
2018-07-11T11:44:22.527Z,18.18
2018-07-11T11:45:27.274Z,18.07
2018-07-11T11:46:34.344Z,17.95
2018-07-11T11:47:41.743Z,18.03
2018-07-11T11:48:46.263Z,17.94
2018-07-11T11:49:51.618Z,17.96
2018-07-11T11:50:58.512Z,18.14
2018-07-11T11:52:04.924Z,18.12
2018-07-11T11:53:10.253Z,18.21
2018-07-11T11:54:16.284Z,18.28
2018-07-11T11:55:22.344Z,18.27
2018-07-11T11:56:26.859Z,18.16
2018-07-11T11:57:31.479Z,18.10
2018-07-11T11:58:36.083Z,18.27
2018-07-11T11:59:43.036Z,18.51
2018-07-11T12:00:49.201Z,18.66
2018-07-11T12:01:54.210Z,18.68
2018-07-11T12:02:59.269Z,18.82
2018-07-11T12:04:04.356Z,18.92
2018-07-11T12:05:12.691Z,18.93
2018-07-11T12:06:17.301Z,19.06
2018-07-11T12:07:23.078Z,19.33
2018-07-11T12:08:28.264Z,19.19
2018-07-11T12:09:35.445Z,19.32
2018-07-11T12:10:40.760Z,19.40
2018-07-11T12:11:46.659Z,19.52
2018-07-11T12:12:52.377Z,19.55
2018-07-11T12:13:58.222Z,19.14
2018-07-11T12:15:02.831Z,19.17
2018-07-11T12:16:10.428Z,19.38
2018-07-11T12:17:16.227Z,19.36
2018-07-11T12:18:20.798Z,19.32
2018-07-11T12:19:26.925Z,19.57
2018-07-11T12:20:31.804Z,19.40
2018-07-11T12:21:39.037Z,18.14
2018-07-11T12:22:44.438Z,17.78
2018-07-11T12:23:49.551Z,17.48
2018-07-11T12:24:56.078Z,17.79
2018-07-11T12:26:10.258Z,18.25
2018-07-11T12:27:15.382Z,18.55
2018-07-11T12:28:21.420Z,18.69
2018-07-11T12:29:25.934Z,18.87
2018-07-11T12:30:30.517Z,19.10
2018-07-11T12:31:38.067Z,19.12
2018-07-11T12:32:43.836Z,18.69
2018-07-11T12:33:48.604Z,17.95
2018-07-11T12:34:54.118Z,17.98
2018-07-11T12:36:00.432Z,18.01
2018-07-11T12:37:05.066Z,17.78
2018-07-11T12:38:09.663Z,17.84
2018-07-11T12:39:15.529Z,17.45
2018-07-11T12:40:22.059Z,17.32
2018-07-11T12:41:26.797Z,17.27
2018-07-11T12:42:33.331Z,17.39
2018-07-11T12:43:41.062Z,17.67
2018-07-11T12:44:46.306Z,17.56
2018-07-11T12:45:51.417Z,17.68
2018-07-11T12:46:57.252Z,17.65
2018-07-11T12:48:07.255Z,17.81
2018-07-11T12:49:12.606Z,17.89
2018-07-11T12:50:17.253Z,18.03
2018-07-11T12:51:22.431Z,17.37
2018-07-11T12:52:27.260Z,17.25
2018-07-11T12:53:31.831Z,17.44
2018-07-11T12:54:37.185Z,17.55
2018-07-11T12:55:41.769Z,17.25
2018-07-11T12:56:47.333Z,17.23
2018-07-11T12:57:52.725Z,17.02
2018-07-11T12:59:00.685Z,17.11
2018-07-11T13:00:05.625Z,17.06
2018-07-11T13:01:11.698Z,17.11
2018-07-11T13:02:16.208Z,17.33
2018-07-11T13:03:20.833Z,17.59
2018-07-11T13:04:25.437Z,17.81
2018-07-11T13:05:31.040Z,17.93
2018-07-11T13:06:38.599Z,17.85
2018-07-11T13:07:43.480Z,18.07
2018-07-11T13:08:48.103Z,18.08
2018-07-11T13:09:54.262Z,18.07
2018-07-11T13:10:58.866Z,18.02
2018-07-11T13:12:10.309Z,18.13
2018-07-11T13:13:14.902Z,18.21
2018-07-11T13:14:21.060Z,18.19
2018-07-11T13:15:26.042Z,18.11
2018-07-11T13:16:31.627Z,17.90
2018-07-11T13:17:36.292Z,17.84
2018-07-11T13:18:41.167Z,17.93
2018-07-11T13:19:45.755Z,17.98
2018-07-11T13:20:51.066Z,18.03
2018-07-11T13:22:02.194Z,18.07
2018-07-11T13:23:09.349Z,18.21
2018-07-11T13:24:20.120Z,18.30
2018-07-11T13:25:26.842Z,18.30
2018-07-11T13:26:35.344Z,18.29
2018-07-11T13:27:39.855Z,18.31
2018-07-11T13:28:44.830Z,18.29
2018-07-11T13:29:49.779Z,18.29
2018-07-11T13:31:00.778Z,18.35
2018-07-11T13:32:07.175Z,18.46
2018-07-11T13:33:11.733Z,18.47
2018-07-11T13:34:17.340Z,18.46
2018-07-11T13:35:21.879Z,18.27
2018-07-11T13:36:26.504Z,17.36
2018-07-11T13:37:35.041Z,17.09
2018-07-11T13:38:40.393Z,17.41
2018-07-11T13:39:46.522Z,17.53
2018-07-11T13:40:51.504Z,17.61
2018-07-11T13:41:58.762Z,17.25
2018-07-11T13:43:04.541Z,17.11
2018-07-11T13:44:10.482Z,17.36
2018-07-11T13:45:16.584Z,17.61
2018-07-11T13:46:21.207Z,17.64
2018-07-11T13:47:28.438Z,17.45
2018-07-11T13:48:33.739Z,17.52
2018-07-11T13:49:39.843Z,17.64
2018-07-11T13:50:45.329Z,17.80
2018-07-11T13:51:50.662Z,17.86
2018-07-11T13:52:56.617Z,17.92
2018-07-11T13:54:03.976Z,17.99
2018-07-11T13:55:10.183Z,18.02
2018-07-11T13:56:17.423Z,17.99
2018-07-11T13:57:24.243Z,18.04
2018-07-11T13:58:30.597Z,18.05
2018-07-11T13:59:36.806Z,18.01
2018-07-11T14:00:53.457Z,18.12
2018-07-11T14:01:59.755Z,18.05
2018-07-11T14:03:05.671Z,18.02
2018-07-11T14:04:10.591Z,18.06
2018-07-11T14:05:16.235Z,18.09
2018-07-11T14:06:24.352Z,18.02
2018-07-11T14:07:31.381Z,18.00
2018-07-11T14:08:36.942Z,18.00
2018-07-11T14:09:42.473Z,18.01
2018-07-11T14:10:47.752Z,17.67
2018-07-11T14:11:52.659Z,17.63
2018-07-11T14:12:58.883Z,17.65
2018-07-11T14:14:04.581Z,17.70
2018-07-11T14:15:12.009Z,17.79
2018-07-11T14:16:17.677Z,17.77
2018-07-11T14:17:22.453Z,17.79
2018-07-11T14:18:27.942Z,17.64
2018-07-11T14:19:33.499Z,17.54
2018-07-11T14:20:38.091Z,17.50
2018-07-11T14:21:43.488Z,17.48
2018-07-11T14:22:49.168Z,17.55
2018-07-11T14:23:54.654Z,17.61
2018-07-11T14:25:00.075Z,17.62
2018-07-11T14:26:05.461Z,17.31
2018-07-11T14:27:17.054Z,17.29
2018-07-11T14:28:22.685Z,17.26
2018-07-11T14:29:30.415Z,17.27
2018-07-11T14:30:36.872Z,17.21
2018-07-11T14:31:42.406Z,17.11
2018-07-11T14:32:48.975Z,16.94
2018-07-11T14:33:54.021Z,16.82